Weather observations for the past three days for
De Kalb Taylor Municipal Airport
Imperial (Metric)
Date Time (cdt) Wind (mph) Vis. (mi.) Weather Sky Cond. Temperature (ºF) Relative Humidity Wind Chill (°F) Heat Index (°F) Pressure Precipitation (in)
Air Dwpt 6 hour altimeter (in) sea level (mb) 1 hr 3 hr 6 hr
Max. Min.
03 23:15 SE 3 10.00 Fair CLR 76.5 75 95% 77 29.96 0.0
03 22:55 E 3 10.00 Fair CLR 76.6 75.6 96% 77 29.96 0.0
03 22:35 Calm 10.00 Fair CLR 76.5 74.8 95% 77 29.96 0.0
03 22:15 Calm 10.00 Fair CLR 77.2 75.4 94% 78 29.96 0.0
03 21:55 E 3 10.00 Fair CLR 77.5 75.4 93% 79 29.96 0.0
03 21:35 E 3 10.00 Fair CLR 77.4 75.2 93% 79 29.96 0.0
03 21:15 E 3 10.00 Fair CLR 77.9 75.4 92% 80 29.96 0.0
03 20:55 Calm 10.00 Fair CLR 77 75.7 96% 78 29.95 0.0
03 20:35 Calm 10.00 Fair CLR 77.9 75.2 91% 80 29.94 0.0
03 20:15 Calm 10.00 Fair CLR 79.7 75.6 87% 84 29.93 0.0
03 19:55 Calm 10.00 Fair CLR 81.1 76.1 85% 88 29.92 0.0
03 19:35 Calm 10.00 Fair CLR 80.8 76.1 86% 87 29.92 0.0
03 19:15 S 5 10.00 Fair CLR 82.4 76.1 81% 90 29.9 0.0
03 18:55 S 7 10.00 Fair CLR 83.5 76.3 89.6 83.5 79% 92 29.9 0.0
03 18:35 S 7 10.00 Fair CLR 85.3 76.1 74% 95 29.91 0.0
03 18:15 S 8 10.00 Fair CLR 86.5 75.2 69% 96 29.92 0.0
03 17:55 S 9 10.00 Fair CLR 87.4 75.7 68% 98 29.92 0.0
03 17:35 S 10 10.00 Fair CLR 88.3 74.5 64% 98 29.92 0.0
03 17:15 S 12 10.00 Fair CLR 88.7 75 64% 99 29.92 0.0
03 16:55 S 9 10.00 Fair CLR 89.2 73.9 61% 98 29.93 0.0
03 16:35 S 9 10.00 Fair CLR 89.4 74.5 61% 99 29.93 0.0
03 16:15 S 7 10.00 Fair CLR 89.2 74.5 62% 99 29.94 0.0
03 15:55 S 10 10.00 Fair CLR 88.9 73.6 61% 97 29.94 0.0
03 15:35 S 9 10.00 Fair CLR 88.9 74.3 62% 98 29.94 0.0
03 15:15 S 10 10.00 Fair CLR 88.5 74.5 63% 98 29.95 0.0
03 14:55 SE 8 10.00 Fair CLR 88 73.4 62% 96 29.96 0.0
03 14:35 SE 9 10.00 Fair CLR 88.2 73.6 62% 96 29.96 0.0
03 14:15 SE 8 10.00 Partly Cloudy SCT090 87.4 72.5 61% 95 29.96 0.0
03 13:55 SE 8 10.00 Partly Cloudy SCT090 87.1 73.8 65% 95 29.97 0.0
03 13:35 SE 8 10.00 Fair CLR 85.3 72.5 66% 92 29.98 0.0
03 13:15 E 12 10.00 Partly Cloudy SCT085 84.6 72.1 66% 90 29.99 0.0
03 12:55 E 10 10.00 Partly Cloudy SCT095 83.8 71.8 85.6 72.7 67% 89 29.99 0.0
03 12:35 E 14 G 18 10.00 Partly Cloudy SCT090 81.7 71.2 71% 86 29.99 0.0
03 12:15 NE 13 10.00 Partly Cloudy SCT090 SCT110 80.4 71.2 74% 84 30 0.0
03 11:55 NE 14 10.00 Mostly Cloudy SCT075 BKN090 79.9 71.2 75% 83 30 0.0
03 11:35 N 12 G 18 10.00 Mostly Cloudy BKN075 BKN090 79.2 70.7 75% 82 30.01 0.0
03 11:15 N 15 G 21 10.00 Mostly Cloudy SCT075 BKN100 80.2 72.5 77% 84 30.01 0.0
03 10:55 N 15 10.00 Thunderstorm in Vicinity SCT075 BKN100 80.6 71.2 73% 84 30 0.0
03 10:35 N 13 G 20 10.00 Mostly Cloudy SCT031 SCT075 BKN110 81.3 73.2 77% 86 30 0.0
03 10:15 NW 15 G 29 10.00 Thunderstorm in Vicinity SCT026 SCT032 OVC110 83.3 72.1 69% 89 30 0.0
03 09:55 SW 7 10.00 Overcast OVC100 84.4 73.9 71% 92 29.97 0.0
03 09:35 SW 7 10.00 Mostly Cloudy BKN100 83.7 73.6 72% 90 29.96 0.0
03 09:15 SW 10 10.00 Fair CLR 84.6 73.8 70% 92 29.96 0.0
03 08:55 SW 6 10.00 Partly Cloudy SCT100 82 73.9 77% 88 29.96 0.0
03 08:35 SW 7 10.00 Partly Cloudy SCT100 80.6 74.3 81% 86 29.96 0.0
03 08:15 S 8 10.00 Fair CLR 79.2 73.4 83% 83 29.96 0.0
03 07:55 SW 6 10.00 Partly Cloudy SCT100 78.1 74.5 89% 81 29.97 0.0
03 07:35 SW 5 10.00 Mostly Cloudy BKN100 75.4 73.9 95% 74 29.97 0.0
03 07:15 S 7 10.00 Partly Cloudy SCT100 74.3 73 96% 29.97 0.0
03 06:55 S 5 10.00 Fair CLR 72.5 72.5 74.5 71.2 100% 29.96 0.0
03 06:35 S 5 10.00 Fair CLR 71.6 71.6 100% 29.96 0.0
03 06:15 S 5 10.00 Fair CLR 72 72 100% 29.96 0.0
03 05:55 S 7 10.00 Fair CLR 72.7 72 98% 29.96 0.0
03 05:35 SW 6 10.00 Fair CLR 73 72.5 98% 29.96 0.0
03 05:15 S 5 10.00 Fair CLR 72.5 72.5 100% 29.96 0.0
03 04:55 S 7 10.00 Fair CLR 73 73 100% 29.96 0.0
03 04:35 S 5 10.00 Fair CLR 73.2 72.7 98% 29.96 0.0
03 04:15 SW 5 10.00 Fair CLR 73.4 73.4 100% 29.95 0.0
03 03:55 S 7 10.00 Fair CLR 72.5 72.5 100% 29.95 0.0
03 03:35 S 6 10.00 Fair CLR 72.5 72.5 100% 29.95 0.0
03 03:15 S 7 10.00 Fair CLR 72.3 72.3 100% 29.95 0.0
03 02:55 S 6 10.00 Fair CLR 73.4 73.4 100% 29.95 0.0
03 02:35 S 6 10.00 Fair CLR 73.8 73.8 100% 29.95 0.0
03 02:15 S 5 10.00 Fair CLR 72.9 72.9 100% 29.95 0.0
03 01:55 S 6 10.00 Partly Cloudy SCT110 73.6 73.6 100% 29.96 0.0
03 01:35 S 7 10.00 Fair CLR 73.4 73.4 100% 29.96 0.0
03 01:15 S 5 10.00 Partly Cloudy SCT110 73.8 73.8 100% 29.96 0.0
03 00:55 S 5 10.00 Partly Cloudy SCT110 74.5 74.5 85.6 74.3 100% 29.96 0.0
03 00:35 S 5 10.00 Partly Cloudy SCT110 74.8 74.5 99% 29.96 0.0
03 00:15 S 5 10.00 Partly Cloudy SCT110 75.4 74.8 98% 73 29.96 0.0
02 23:55 S 6 10.00 Partly Cloudy SCT110 74.5 74.3 99% 29.96 0.0
02 23:35 S 6 10.00 Fair CLR 74.3 74.3 100% 29.96 0.0
02 23:15 S 6 10.00 Fair CLR 75.2 73.8 95% 74 29.95 0.0
02 22:55 S 3 10.00 Fair CLR 75.6 73.9 95% 74 29.95 0.0
02 22:35 S 5 10.00 Fair CLR 76.8 73.9 91% 78 29.95 0.0
02 22:15 Calm 10.00 Fair CLR 77.2 74.3 91% 79 29.96 0.0
02 21:55 Calm 10.00 Fair CLR 77.9 74.3 89% 80 29.96 0.0
02 21:35 SW 6 10.00 Fair CLR 79.9 74.3 83% 84 29.96 0.0
02 21:15 Calm 10.00 Fair CLR 80.1 74.7 84% 85 29.95 0.0
02 20:55 SW 6 10.00 Fair CLR 80.1 74.8 84% 85 29.94 0.0
02 20:35 SW 8 10.00 Fair CLR 80.4 74.8 83% 86 29.93 0.0
02 20:15 SW 8 10.00 Fair CLR 80.8 74.5 81% 86 29.92 0.0
02 19:55 SW 8 10.00 Fair CLR 82.4 74.7 78% 89 29.92 0.0
02 19:35 SW 9 10.00 Fair CLR 83.1 75.2 77% 91 29.92 0.0
02 19:15 S 13 10.00 Fair CLR 84.4 75.2 74% 93 29.91 0.0
02 18:55 S 12 10.00 Fair CLR 85.8 75.9 93.4 85.8 72% 96 29.92 0.0
02 18:35 S 10 10.00 Fair CLR 87.3 76.5 70% 98 29.92 0.0
02 18:15 SW 8 G 17 10.00 Fair CLR 88.7 76.3 67% 100 29.92 0.0
02 17:55 SW 10 10.00 Fair CLR 89.6 75.7 64% 101 29.93 0.0
02 17:35 SW 8 10.00 Fair CLR 90.7 75.4 61% 102 29.93 0.0
02 17:15 SW 10 10.00 Fair CLR 89.8 75.9 64% 101 29.93 0.0
02 16:55 SW 10 10.00 Fair CLR 89.8 74.8 62% 100 29.93 0.0
02 16:35 SW 10 10.00 Fair CLR 92.3 74.3 56% 103 29.94 0.0
02 16:15 SW 13 G 16 10.00 Fair CLR 92.7 72.7 52% 101 29.94 0.0
02 15:55 SW 12 G 17 10.00 Fair CLR 92.7 73.6 54% 102 29.94 0.0
02 15:35 SW 15 G 20 10.00 Fair CLR 92.8 71.8 50% 101 29.94 0.0
02 15:15 SW 16 10.00 Fair CLR 93.2 72.3 51% 102 29.95 0.0
02 14:55 W 13 G 22 10.00 Fair CLR 93 71.4 49% 100 29.95 0.0
02 14:35 W 12 10.00 Fair CLR 92.8 73.6 54% 102 29.96 0.0
02 14:15 SW 14 10.00 Fair CLR 92.8 73.4 53% 102 29.96 0.0
02 13:55 SW 13 G 18 10.00 Partly Cloudy SCT100 91.4 73.6 56% 101 29.96 0.0
02 13:35 SW 14 10.00 Partly Cloudy SCT110 91.2 74.8 59% 102 29.96 0.0
02 13:15 SW 13 10.00 Partly Cloudy SCT100 90.9 75 60% 102 29.97 0.0
02 12:55 SW 10 10.00 Partly Cloudy SCT100 91 74.1 91.8 71.2 58% 101 29.97 0.0
02 12:35 SW 10 10.00 Fair CLR 90.9 74.3 58% 101 29.97 0.0
02 12:15 SW 9 10.00 Fair CLR 89.8 75.2 62% 100 29.97 0.0
02 11:55 SW 9 10.00 Fair CLR 88.5 74.8 64% 98 29.98 0.0
02 11:35 SW 10 10.00 Fair CLR 88 74.7 65% 97 29.98 0.0
02 11:15 SW 9 10.00 Fair CLR 87.1 74.7 67% 96 29.98 0.0
02 10:35 S 7 10.00 Fair CLR 85.3 73.9 69% 93 29.98 0.0
02 10:15 SW 7 10.00 Fair CLR 83.7 73.6 72% 90 29.99 0.0
02 09:55 W 8 10.00 Partly Cloudy SCT095 82.2 72.1 72% 87 29.99 0.0
02 09:35 Calm 10.00 Partly Cloudy SCT095 79.9 72 77% 84 29.99 0.0
02 09:15 Calm 10.00 Partly Cloudy SCT095 81.1 73.2 77% 86 30 0.0
02 08:55 N 7 10.00 Partly Cloudy SCT095 79.9 72.1 77% 84 30 0.0
02 08:35 N 6 10.00 Partly Cloudy SCT095 79 71.8 79% 82 30 0.0
02 08:15 SW 6 10.00 Fair CLR 79.3 72.7 80% 83 29.99 0.0
02 07:55 S 6 10.00 Fair CLR 75.6 71.8 88% 75 29.99 0.0
02 07:35 S 6 10.00 Fair CLR 72.9 70 91% 29.99 0.0
02 07:15 SW 5 10.00 Fair CLR 72.1 69.3 91% 29.99 0.0
02 06:55 S 7 10.00 Fair CLR 71.6 68.5 77 71.4 90% 29.99 0.0
02 06:35 SW 6 10.00 Fair CLR 71.6 68.2 89% 29.98 0.0
02 06:15 SW 7 10.00 Fair CLR 72.1 68.5 89% 29.98 0.0
02 05:55 SW 7 10.00 Fair CLR 72.5 68.9 89% 29.98 0.0
02 05:35 SW 7 10.00 Fair CLR 72.7 69.1 89% 29.99 0.0
02 05:15 SW 6 10.00 Fair CLR 73.8 69.3 86% 29.99 0.0
02 04:55 SW 7 10.00 Fair CLR 72.5 69.8 91% 29.99 0.0
02 04:35 SW 6 10.00 Fair CLR 73 69.8 90% 29.99 0.0
02 04:15 SW 5 10.00 Fair CLR 71.8 70.2 95% 29.99 0.0
02 03:55 SW 7 10.00 Fair CLR 72.5 70 92% 29.98 0.0
02 03:35 SW 7 10.00 Fair CLR 73.6 70.2 89% 29.97 0.0
02 03:15 SW 8 10.00 Fair CLR 75.2 70.3 85% 75 29.97 0.0
02 02:55 SW 9 10.00 Fair CLR 76.3 70.7 83% 77 29.97 0.0
02 02:35 SW 10 10.00 Fair CLR 76.3 70.7 83% 77 29.97 0.0
02 02:15 SW 8 10.00 Fair CLR 76.1 70.3 82% 77 29.97 0.0
02 01:55 SW 8 10.00 Fair CLR 75.9 70.7 84% 77 29.97 0.0
02 01:35 SW 8 10.00 Fair CLR 75.2 70.2 84% 75 29.98 0.0
02 01:15 SW 8 10.00 Fair CLR 75.7 70.7 84% 76 29.98 0.0
02 00:55 SW 8 10.00 Fair CLR 75.9 71.2 85.3 72.9 85% 76 29.98 0.0
02 00:35 SW 9 10.00 Fair CLR 75.4 72 89% 75 29.98 0.0
02 00:15 SW 8 10.00 Fair CLR 75.6 72.7 91% 75 29.98 0.0
01 23:55 SW 9 10.00 Fair CLR 73.8 72.9 97% 29.98 0.0
01 23:35 S 6 10.00 Fair CLR 73.6 72 95% 29.98 0.0
01 23:15 SW 6 10.00 Fair CLR 73.6 72.5 96% 29.98 0.0
01 22:55 S 6 10.00 Fair CLR 74.3 72.7 95% 29.98 0.0
01 22:35 S 8 10.00 Fair CLR 76.1 73.8 93% 76 29.98 0.0
01 22:15 SW 8 10.00 Fair CLR 75.6 73.9 95% 74 29.99 0.0
01 21:55 SW 8 10.00 Fair CLR 76.3 73.8 92% 76 29.99 0.0
01 21:35 SW 8 10.00 Fair CLR 76.6 73.4 90% 77 29.99 0.0
01 21:15 SW 7 10.00 Fair CLR 77 73.4 89% 78 29.99 0.0
01 20:55 SW 6 10.00 Fair CLR 77.9 73.8 87% 80 29.98 0.0
01 20:35 SW 7 10.00 Fair CLR 79.3 73.9 84% 83 29.97 0.0
01 20:15 SW 7 10.00 Fair CLR 78.8 74.3 86% 82 29.97 0.0
01 19:55 SW 7 10.00 Fair CLR 79.9 74.5 84% 84 29.96 0.0
01 19:35 SW 7 10.00 Fair CLR 81 75.2 83% 87 29.96 0.0
01 19:15 SW 8 10.00 Fair CLR 83.3 75.9 79% 92 29.96 0.0
01 18:55 SW 9 10.00 Fair CLR 85.5 76.5 92.7 85.5 75% 96 29.96 0.0
01 18:35 S 9 10.00 Fair CLR 87.1 77.5 73% 100 29.96 0.0
01 18:15 SW 8 10.00 Fair CLR 88 78.3 73% 102 29.96 0.0
01 17:55 SW 10 10.00 Partly Cloudy SCT095 88.7 78.6 72% 103 29.96 0.0
01 17:35 S 9 10.00 Mostly Cloudy BKN095 89.6 79.2 71% 106 29.97 0.0
01 17:15 SW 9 10.00 Partly Cloudy SCT095 89.1 78.1 70% 103 29.97 0.0
01 16:55 SW 12 10.00 Partly Cloudy SCT095 89.8 79.2 71% 106 29.96 0.0
01 16:35 SW 10 10.00 Partly Cloudy SCT095 91.6 79.3 67% 109 29.96 0.0
01 16:15 SW 10 10.00 Partly Cloudy SCT095 91.9 78.4 65% 108 29.97 0.0
01 15:55 SW 10 10.00 Partly Cloudy SCT095 91.6 77.9 64% 107 29.97 0.0
01 15:35 SW 8 10.00 Overcast OVC095 91.9 77.4 63% 106 29.97 0.0
01 15:15 SW 9 10.00 Mostly Cloudy BKN095 91.2 78.8 67% 107 29.97 0.0
01 14:55 SW 14 G 17 10.00 Thunderstorm in Vicinity CLR 92.3 77.7 63% 107 29.98 0.0
01 14:35 SW 12 10.00 Fair CLR 92.7 78.4 63% 109 29.98 0.0
01 14:15 SW 10 10.00 Fair CLR 92.3 78.4 64% 108 29.98 0.0
01 13:55 SW 12 10.00 Fair CLR 92.5 79.7 66% 111 29.98 0.0
01 13:35 SW 9 10.00 Fair CLR 91.8 78.4 65% 108 29.99 0.0
01 13:15 SW 13 10.00 Fair CLR 91.4 78.4 66% 107 29.99 0.0
01 12:55 W 9 10.00 Fair CLR 90.5 77 90.7 76.1 65% 104 29.99 0.0
01 12:35 W 9 10.00 Fair CLR 90.1 77.7 67% 104 30 0.0
01 12:15 SW 8 10.00 Fair CLR 90.1 78.4 69% 105 30 0.0
01 11:55 SW 10 10.00 Thunderstorm in Vicinity CLR 89.4 79 71% 105 30 0.0
01 11:35 W 7 10.00 Fair CLR 88.5 78.4 72% 103 30 0.0
01 11:15 SW 8 10.00 Fair CLR 88 77.7 72% 101 30.01 0.0
01 10:55 W 9 10.00 Fair CLR 87.1 78.3 75% 100 30 0.0
01 10:35 SW 8 10.00 Fair CLR 86.2 78.3 77% 99 30 0.0
01 10:15 SW 7 10.00 Fair CLR 84.6 77.5 80% 95 30 0.0
01 09:55 SW 8 10.00 Fair CLR 82.9 76.5 81% 91 30 0.0
01 09:35 SW 6 10.00 Fair CLR 81.7 75.4 81% 88 30 0.0
01 09:15 SW 9 10.00 Fair CLR 81 75.2 83% 87 30 0.0
01 08:55 SW 8 10.00 Fair CLR 81.1 74.8 81% 87 30 0.0
01 08:35 SW 7 10.00 Fair CLR 80.4 74.1 81% 85 30 0.0
01 08:15 SW 7 10.00 Fair CLR 79 73.2 83% 82 30 0.0
01 07:55 SW 6 10.00 Fair CLR 77 73.2 88% 78 30.01 0.0
01 07:35 SW 6 10.00 Fair CLR 76.5 72.7 88% 77 30 0.0
01 07:15 SW 6 10.00 Fair CLR 76.3 72.7 89% 77 30 0.0
01 06:55 W 8 10.00 Fair CLR 76.1 72.7 76.6 75 89% 76 29.99 0.0
01 06:35 W 6 10.00 Fair CLR 75.2 72.5 91% 74 29.99 0.0
01 06:15 SW 7 10.00 Fair CLR 75.4 72.5 91% 75 29.98 0.0
01 05:55 W 7 10.00 Fair CLR 75.4 72.7 91% 75 29.98 0.0
01 05:35 W 6 10.00 Fair CLR 75.4 72.7 91% 75 29.97 0.0
01 05:15 SW 6 10.00 Fair CLR 75.2 72.7 92% 74 29.97 0.0
01 04:55 SW 6 10.00 Fair CLR 75.6 72.5 90% 75 29.97 0.0
01 04:35 SW 7 10.00 Fair CLR 76.5 72.7 88% 77 29.97 0.0
01 04:15 W 6 10.00 Fair CLR 76.1 72.9 90% 76 29.97 0.0
01 03:55 SW 8 10.00 Fair CLR 76.5 72.7 88% 77 29.97 0.0
01 03:35 W 7 10.00 Fair CLR 76.1 72.9 90% 76 29.96 0.0
01 03:15 SW 8 10.00 Fair CLR 76.1 72.9 90% 76 29.96 0.0
01 02:55 SW 7 10.00 Fair CLR 76.3 73 90% 77 29.96 0.0
01 02:35 SW 6 10.00 Fair CLR 75.9 73.4 92% 76 29.97 0.0
01 02:15 SW 5 10.00 Fair CLR 75.4 73.8 95% 74 29.96 0.0
01 01:55 SW 5 10.00 Fair CLR 75.4 74.3 96% 74 29.96 0.0
01 01:35 SW 5 10.00 Fair CLR 75.4 74.3 96% 74 29.96 0.0
01 01:15 SW 5 10.00 Fair CLR 75.6 74.5 96% 74 29.96 0.0
01 00:55 SW 6 10.00 Fair CLR 75.2 74.7 81.3 73.8 98% 73 29.96 0.0
01 00:35 SW 6 10.00 Fair CLR 74.3 74.3 100% 29.96 0.0
01 00:15 SW 6 10.00 Fair CLR 74.5 74.3 99% 29.96 0.0
31 23:55 SW 7 10.00 Fair CLR 75 74.5 98% 73 29.96 0.0
31 23:35 SW 7 10.00 Fair CLR 74.7 74.3 99% 29.96 0.0
Date Time (cdt) Wind (mph) Vis. (mi.) Weather Sky Cond. Air Dwpt Max. Min. Relative Humidity Wind Chill (°F) Heat Index (°F) altimeter (in) sea level (mb) 1 hr 3 hr 6 hr
6 hour
Temperature (ºF) Pressure Precipitation (in)